Terminal Aerodrome Forecast
Issued by NWS

Home | Current Version | Previous Version | Text Only | Print | Product List | Glossary On
Versions: 1 2 3 4 5 6 7 8 9 10 11 12 13 14 15 16 17 18
371
FTUS43 KSGF 231720
TAFJLN
TAF
KJLN 231720Z 2318/2418 33008KT P6SM VCSH OVC015
     FM232000 31010KT P6SM OVC040
     FM240000 31008KT P6SM BKN120
     FM240900 30005KT P6SM OVC015=

USA.gov is the U.S. government's official web portal to all federal, state and local government web resources and services.